Time;durP1;ratioP1;P1;durP2;ratioP2;P2;SDS_P1;SDS_P2;PMS_P1;PMS_P2;Temp;Humidity;BMP_temperature;BMP_pressure;BME280_temperature;BME280_humidity;BME280_pressure;Samples;Min_cycle;Max_cycle;Signal;HPM_P1;HPM_P2
2022/08/10 00:01:52;;;;;;;2.92;1.58;;;;;;;18.44;59.51;102158.00;5048719;28;20061;-44
2022/08/10 00:04:23;;;;;;;4.20;1.80;;;;;;;18.39;59.75;102151.84;5048568;28;20537;-44
2022/08/10 00:06:52;;;;;;;4.75;1.80;;;;;;;18.36;60.12;102156.19;5048795;28;20487;-48
2022/08/10 00:09:19;;;;;;;4.65;1.83;;;;;;;18.36;60.06;102144.97;5048708;28;20530;-42
2022/08/10 00:11:46;;;;;;;3.63;1.65;;;;;;;18.35;60.09;102148.94;5040872;28;20052;-46
2022/08/10 00:14:13;;;;;;;3.25;2.00;;;;;;;18.31;60.15;102144.44;5048288;28;20053;-43
2022/08/10 00:16:39;;;;;;;2.58;1.65;;;;;;;18.27;60.37;102150.78;5048542;28;20466;-46
2022/08/10 00:19:06;;;;;;;4.43;2.58;;;;;;;18.25;60.53;102141.09;5048578;28;20044;-45
2022/08/10 00:21:33;;;;;;;5.18;2.03;;;;;;;18.22;60.65;102137.03;5030297;28;20090;-43
2022/08/10 00:23:59;;;;;;;6.05;1.85;;;;;;;18.23;60.66;102143.47;5048498;28;20521;-43
2022/08/10 00:26:26;;;;;;;5.60;2.13;;;;;;;18.21;60.78;102143.00;5048528;28;20049;-44
2022/08/10 00:29:13;;;;;;;3.00;1.65;;;;;;;18.15;61.07;102134.06;5042060;28;20034;-46
2022/08/10 00:31:39;;;;;;;4.20;1.90;;;;;;;18.17;61.13;102136.50;5026584;28;20132;-44
2022/08/10 00:34:29;;;;;;;4.05;2.03;;;;;;;18.17;61.19;102136.50;5015922;28;20131;-41
2022/08/10 00:36:56;;;;;;;3.40;2.40;;;;;;;18.17;61.14;102133.69;5023261;28;20128;-45
2022/08/10 00:39:25;;;;;;;2.53;2.10;;;;;;;18.13;61.32;102136.44;5011777;28;20145;-45
2022/08/10 00:41:52;;;;;;;2.88;2.08;;;;;;;18.09;61.51;102140.28;5051195;28;20048;-45
2022/08/10 00:44:38;;;;;;;5.90;2.40;;;;;;;18.06;61.51;102132.59;5048269;28;20095;-41
2022/08/10 00:47:06;;;;;;;3.63;2.20;;;;;;;18.06;61.73;102135.41;5053567;28;20395;-42
2022/08/10 00:49:53;;;;;;;2.80;2.00;;;;;;;18.06;61.74;102129.81;5048533;28;20549;-48
2022/08/10 00:52:20;;;;;;;3.35;2.80;;;;;;;18.03;61.84;102130.56;5048343;28;20083;-41
2022/08/10 00:54:47;;;;;;;3.95;2.22;;;;;;;17.98;62.02;102133.59;5048363;28;20052;-41
2022/08/10 00:57:14;;;;;;;4.18;2.05;;;;;;;17.95;61.94;102134.34;5048124;28;20095;-44
2022/08/10 00:59:45;;;;;;;4.30;2.40;;;;;;;17.94;61.93;102132.72;5034102;28;20483;-42
2022/08/10 01:02:30;;;;;;;6.07;2.70;;;;;;;17.95;61.70;102128.75;5052058;28;20060;-42
2022/08/10 01:05:01;;;;;;;4.00;2.70;;;;;;;17.99;61.76;102130.47;5051704;28;20871;-41
2022/08/10 01:07:36;;;;;;;3.45;2.75;;;;;;;18.05;61.32;102122.59;5052570;28;20114;-40
2022/08/10 01:10:27;;;;;;;4.90;2.50;;;;;;;18.05;61.41;102133.81;5051828;28;20517;-42
2022/08/10 01:13:15;;;;;;;5.03;2.60;;;;;;;18.05;61.18;102129.00;5052091;28;20051;-41
2022/08/10 01:16:04;;;;;;;3.28;2.58;;;;;;;18.06;61.12;102130.63;5052165;28;20110;-42
2022/08/10 01:18:43;;;;;;;3.65;2.00;;;;;;;18.08;60.91;102121.88;5051946;28;20143;-41
2022/08/10 01:21:33;;;;;;;8.10;2.72;;;;;;;18.06;61.12;102125.00;5051915;28;20560;-44
2022/08/10 01:24:19;;;;;;;5.68;2.65;;;;;;;18.05;61.11;102125.41;5044039;28;20049;-41
2022/08/10 01:27:06;;;;;;;7.07;2.42;;;;;;;18.07;60.90;102123.03;5051723;28;20053;-44
2022/08/10 01:30:01;;;;;;;2.50;1.90;;;;;;;18.11;61.01;102119.13;5051723;28;20099;-42
2022/08/10 01:32:41;;;;;;;8.85;2.20;;;;;;;18.11;60.88;102118.31;5051332;28;20049;-42
2022/08/10 01:35:20;;;;;;;7.15;2.47;;;;;;;18.08;60.91;102121.88;5043492;28;20046;-42
2022/08/10 01:37:57;;;;;;;3.97;2.28;;;;;;;18.04;61.04;102120.94;5051552;28;20051;-46
2022/08/10 01:40:27;;;;;;;5.45;2.20;;;;;;;18.01;61.28;102110.47;5052973;28;20039;-45
2022/08/10 01:42:57;;;;;;;4.55;2.35;;;;;;;17.98;61.32;102106.41;5051063;28;20052;-42
2022/08/10 01:45:38;;;;;;;3.17;2.15;;;;;;;17.98;61.35;102114.00;5051167;28;20072;-47
2022/08/10 01:48:30;;;;;;;4.53;1.85;;;;;;;17.93;61.49;102108.66;5051259;28;20041;-40
2022/08/10 01:51:13;;;;;;;2.55;2.25;;;;;;;17.92;61.47;102112.66;5033610;28;20048;-42
2022/08/10 01:53:50;;;;;;;4.40;2.10;;;;;;;17.86;61.82;102111.28;5051136;28;20048;-43
2022/08/10 01:56:21;;;;;;;3.20;2.00;;;;;;;17.84;61.83;102110.84;5051174;28;20430;-41
2022/08/10 01:58:51;;;;;;;3.60;2.17;;;;;;;17.86;61.85;102114.09;5051629;28;20068;-43
2022/08/10 02:01:22;;;;;;;7.32;2.33;;;;;;;17.81;61.96;102105.97;5050952;28;20152;-43
2022/08/10 02:03:52;;;;;;;4.65;3.28;;;;;;;17.76;62.12;102109.03;5051395;28;20051;-44
2022/08/10 02:06:35;;;;;;;1.92;1.60;;;;;;;17.78;61.90;102120.69;5051013;28;20132;-47
2022/08/10 02:09:04;;;;;;;7.50;2.30;;;;;;;17.77;62.10;102107.84;5051139;28;20167;-42
2022/08/10 02:11:35;;;;;;;2.40;2.20;;;;;;;17.71;62.37;102112.94;5050234;28;20132;-44
2022/08/10 02:14:25;;;;;;;7.60;2.30;;;;;;;17.67;62.47;102119.59;5051461;28;20075;-43
2022/08/10 02:17:06;;;;;;;7.80;3.08;;;;;;;17.66;62.58;102120.78;5032774;28;20128;-43
2022/08/10 02:19:37;;;;;;;4.75;2.00;;;;;;;17.67;62.35;102125.19;5050939;28;20079;-44
2022/08/10 02:22:07;;;;;;;5.93;2.05;;;;;;;17.69;62.43;102131.25;5051068;28;20131;-47
2022/08/10 02:24:56;;;;;;;4.40;2.13;;;;;;;17.61;62.39;102119.84;5050729;28;20041;-49
2022/08/10 02:27:25;;;;;;;3.65;2.20;;;;;;;17.61;62.30;102122.66;5039696;28;20045;-45
2022/08/10 02:29:53;;;;;;;2.65;2.00;;;;;;;17.63;62.24;102122.31;5033503;28;20148;-46
2022/08/10 02:32:24;;;;;;;3.35;2.10;;;;;;;17.57;62.18;102116.16;5051380;28;20045;-48
2022/08/10 02:35:09;;;;;;;6.18;2.28;;;;;;;17.57;62.19;102113.38;5034664;28;20053;-44
2022/08/10 02:37:50;;;;;;;5.13;1.63;;;;;;;17.51;62.45;102117.56;5037320;28;20041;-48
2022/08/10 02:40:18;;;;;;;3.97;2.13;;;;;;;17.47;62.24;102116.63;5050493;28;20461;-42
2022/08/10 02:43:08;;;;;;;5.90;1.70;;;;;;;17.43;62.34;102112.13;5038299;28;20037;-45
2022/08/10 02:46:04;;;;;;;3.85;1.95;;;;;;;17.36;62.43;102109.13;5032426;28;20048;-41
2022/08/10 02:48:41;;;;;;;4.78;1.75;;;;;;;17.31;62.73;102093.41;5020262;28;20037;-45
2022/08/10 02:51:14;;;;;;;2.63;1.70;;;;;;;17.31;62.63;102103.81;5028124;28;20051;-46
2022/08/10 02:53:47;;;;;;;6.13;1.80;;;;;;;17.29;62.67;102106.94;5003541;28;20107;-49
2022/08/10 02:56:34;;;;;;;2.63;1.23;;;;;;;17.28;62.45;102110.94;5024264;28;20219;-41
2022/08/10 02:59:10;;;;;;;2.45;1.40;;;;;;;17.27;62.49;102105.66;5030471;28;20041;-43
2022/08/10 03:01:43;;;;;;;4.82;1.50;;;;;;;17.26;62.60;102118.84;5130542;22;20136;-43
2022/08/10 03:04:20;;;;;;;3.30;1.52;;;;;;;17.25;62.25;102111.63;5050029;28;20512;-42
2022/08/10 03:07:11;;;;;;;3.25;1.88;;;;;;;17.27;62.28;102117.69;5050036;28;20398;-43
2022/08/10 03:09:39;;;;;;;8.68;1.80;;;;;;;17.25;62.32;102113.63;5050211;28;20138;-42
2022/08/10 03:12:09;;;;;;;3.13;1.48;;;;;;;17.28;62.14;102118.50;5031611;28;20072;-42
2022/08/10 03:14:58;;;;;;;3.05;1.60;;;;;;;17.24;62.11;102121.19;5050065;28;20041;-43
2022/08/10 03:17:26;;;;;;;4.90;1.42;;;;;;;17.24;62.08;102117.56;5055633;28;20036;-46
2022/08/10 03:19:55;;;;;;;2.28;1.67;;;;;;;17.21;62.21;102121.91;5056733;28;20055;-48
2022/08/10 03:22:43;;;;;;;6.13;1.70;;;;;;;17.17;62.18;102120.19;5049791;28;20048;-44
2022/08/10 03:25:12;;;;;;;2.22;1.80;;;;;;;17.17;62.36;102118.22;5049446;28;20059;-44
2022/08/10 03:27:41;;;;;;;1.70;1.60;;;;;;;17.13;62.48;102120.06;5031943;28;20143;-48
2022/08/10 03:30:09;;;;;;;1.73;1.48;;;;;;;17.08;62.75;102111.94;5050037;28;20110;-43
2022/08/10 03:32:57;;;;;;;1.75;1.65;;;;;;;17.06;62.49;102114.28;5049460;28;20041;-46
2022/08/10 03:35:25;;;;;;;4.60;1.60;;;;;;;17.05;62.74;102118.25;5049664;28;20045;-40
2022/08/10 03:37:51;;;;;;;6.60;2.08;;;;;;;17.00;62.86;102118.50;5049529;28;20047;-47
2022/08/10 03:40:28;;;;;;;3.10;1.65;;;;;;;16.98;62.99;102118.03;5049915;28;20138;-44
2022/08/10 03:43:18;;;;;;;3.72;1.58;;;;;;;16.95;63.07;102113.97;5038438;28;20053;-41
2022/08/10 03:45:51;;;;;;;2.47;1.90;;;;;;;16.92;63.17;102109.09;5049441;28;20143;-41
2022/08/10 03:48:26;;;;;;;1.67;1.48;;;;;;;16.94;63.10;102105.94;5032033;28;20077;-45
2022/08/10 03:51:10;;;;;;;4.07;1.95;;;;;;;16.88;63.17;102107.38;5049314;28;20080;-43
2022/08/10 03:53:38;;;;;;;2.83;1.73;;;;;;;16.88;63.22;102105.38;5045665;28;20060;-41
2022/08/10 03:56:25;;;;;;;3.47;1.77;;;;;;;16.86;63.11;102115.31;5045428;28;20536;-43
2022/08/10 03:58:57;;;;;;;;;;;;;;;16.82;62.90;102108.78;5032489;28;20056;-41
2022/08/10 04:01:24;;;;;;;5.72;1.60;;;;;;;16.79;62.95;102103.88;5030919;28;19924;-47
2022/08/10 04:04:12;;;;;;;3.97;1.73;;;;;;;16.75;62.95;102098.22;5048696;28;20048;-41
2022/08/10 04:06:43;;;;;;;;;;;;;;;16.70;62.99;102092.88;5049649;28;20546;-43
2022/08/10 04:09:10;;;;;;;2.00;1.35;;;;;;;16.62;63.01;102107.78;5048857;28;19921;-42
2022/08/10 04:11:39;;;;;;;1.63;1.52;;;;;;;16.59;63.04;102102.91;5048875;28;20102;-42
2022/08/10 04:14:07;;;;;;;3.95;1.75;;;;;;;16.58;63.13;102100.44;5056426;28;20036;-41
2022/08/10 04:16:53;;;;;;;2.80;1.77;;;;;;;16.60;62.98;102103.72;5052516;28;20067;-45
2022/08/10 04:19:21;;;;;;;3.58;1.30;;;;;;;16.56;63.12;102098.03;5048779;28;20076;-41
2022/08/10 04:21:58;;;;;;;4.28;1.55;;;;;;;16.55;63.10;102098.38;5048354;28;20136;-45
2022/08/10 04:24:27;;;;;;;4.45;1.88;;;;;;;16.53;63.10;102100.69;5048605;28;20115;-42
2022/08/10 04:27:01;;;;;;;3.75;1.55;;;;;;;16.51;63.02;102097.41;5048376;28;20491;-41
2022/08/10 04:29:28;;;;;;;3.10;1.45;;;;;;;16.45;63.11;102092.06;5048581;28;20045;-42
2022/08/10 04:31:54;;;;;;;2.88;1.30;;;;;;;16.46;63.19;102095.69;5062371;28;20090;-43
2022/08/10 04:34:24;;;;;;;3.85;2.20;;;;;;;16.41;63.30;102099.50;5038235;28;20159;-44
2022/08/10 04:36:56;;;;;;;2.65;1.65;;;;;;;16.37;63.29;102093.00;5048734;28;20410;-44
2022/08/10 04:39:23;;;;;;;2.28;1.48;;;;;;;16.34;63.30;102099.31;5048474;28;20135;-41
2022/08/10 04:41:51;;;;;;;2.83;1.27;;;;;;;16.30;63.61;102091.97;5048259;28;20124;-41
2022/08/10 04:44:17;;;;;;;4.57;1.63;;;;;;;16.26;63.38;102093.81;5048640;28;20052;-42
2022/08/10 04:46:44;;;;;;;4.03;1.77;;;;;;;16.26;63.38;102091.03;5048236;28;20482;-43
2022/08/10 04:49:24;;;;;;;2.95;1.83;;;;;;;16.24;63.44;102088.59;5033168;28;20103;-41
2022/08/10 04:52:11;;;;;;;4.38;1.88;;;;;;;16.22;63.63;102096.53;5048404;28;20502;-43
2022/08/10 04:54:37;;;;;;;5.35;2.42;;;;;;;16.22;63.32;102102.13;5036049;28;20041;-41
2022/08/10 04:57:05;;;;;;;6.78;2.00;;;;;;;16.18;63.52;102101.19;5048236;28;20049;-45
2022/08/10 04:59:32;;;;;;;2.92;2.10;;;;;;;16.16;63.65;102108.28;5048285;28;20060;-41
2022/08/10 05:01:59;;;;;;;4.25;1.67;;;;;;;16.14;63.77;102100.25;5047940;28;20498;-41
2022/08/10 05:04:46;;;;;;;4.05;1.92;;;;;;;16.13;63.61;102093.03;5048429;28;20136;-47
2022/08/10 05:07:16;;;;;;;3.92;1.73;;;;;;;16.10;63.65;102096.53;5040840;28;20132;-45
2022/08/10 05:09:48;;;;;;;3.72;2.20;;;;;;;16.08;64.04;102090.47;5024302;28;20045;-43
2022/08/10 05:12:36;;;;;;;5.90;2.10;;;;;;;16.05;63.83;102096.75;5022226;28;20041;-43
2022/08/10 05:15:11;;;;;;;3.53;1.73;;;;;;;16.07;64.08;102093.63;5010564;28;20594;-47
2022/08/10 05:17:41;;;;;;;3.45;1.95;;;;;;;15.98;63.85;102085.38;5019284;28;22292;-45
2022/08/10 05:20:27;;;;;;;5.68;1.90;;;;;;;15.90;64.04;102091.88;5020437;28;20044;-41
2022/08/10 05:22:54;;;;;;;2.53;1.98;;;;;;;15.88;64.21;102085.84;5048373;28;20197;-41
2022/08/10 05:25:21;;;;;;;4.47;2.17;;;;;;;15.91;64.30;102089.91;5056754;28;20143;-42
2022/08/10 05:27:48;;;;;;;2.45;1.83;;;;;;;15.90;64.21;102094.66;5044943;28;20502;-41
2022/08/10 05:30:17;;;;;;;3.20;2.88;;;;;;;15.91;64.14;102090.72;5042050;28;20059;-42
2022/08/10 05:32:45;;;;;;;2.92;2.63;;;;;;;15.92;64.32;102100.72;5048216;28;20049;-44
2022/08/10 05:35:26;;;;;;;2.35;1.90;;;;;;;15.91;64.42;102087.94;5047934;28;20108;-43
2022/08/10 05:37:55;;;;;;;3.97;2.40;;;;;;;15.91;64.46;102095.50;5047854;28;20469;-41
2022/08/10 05:40:42;;;;;;;3.63;1.58;;;;;;;15.88;64.49;102090.59;5043747;28;20124;-44
2022/08/10 05:43:18;;;;;;;2.15;1.92;;;;;;;15.89;64.62;102090.25;5048150;28;20056;-40
2022/08/10 05:45:45;;;;;;;4.75;1.83;;;;;;;15.88;64.54;102093.41;5047886;28;20037;-44
2022/08/10 05:48:33;;;;;;;4.07;1.80;;;;;;;15.89;64.56;102093.03;5050036;28;20136;-43
2022/08/10 05:51:21;;;;;;;2.85;1.77;;;;;;;15.96;64.63;102087.69;5051402;28;20044;-42
2022/08/10 05:53:48;;;;;;;3.95;1.90;;;;;;;15.96;64.66;102090.50;5051123;28;20048;-44
2022/08/10 05:56:30;;;;;;;8.95;2.80;;;;;;;15.96;64.56;102082.13;5052051;28;20102;-42
2022/08/10 05:59:18;;;;;;;5.65;3.10;;;;;;;15.96;64.57;102084.91;5051160;28;20479;-41
2022/08/10 06:02:07;;;;;;;5.32;2.33;;;;;;;15.99;64.69;102084.19;5050860;28;20052;-41
2022/08/10 06:04:57;;;;;;;5.70;2.80;;;;;;;16.06;64.58;102078.84;5050720;28;20052;-44
2022/08/10 06:07:28;;;;;;;6.32;2.20;;;;;;;16.11;64.65;102087.00;5051050;28;20520;-47
2022/08/10 06:09:57;;;;;;;4.28;1.60;;;;;;;16.13;64.65;102084.66;5051098;28;20102;-44
2022/08/10 06:12:28;;;;;;;3.25;2.05;;;;;;;16.14;64.62;102094.69;5051544;28;20116;-43
2022/08/10 06:15:16;;;;;;;2.63;1.63;;;;;;;16.20;64.71;102093.25;5032871;28;20525;-42
2022/08/10 06:18:03;;;;;;;4.93;2.08;;;;;;;16.24;64.61;102094.19;5050641;28;20526;-41
2022/08/10 06:20:31;;;;;;;1.55;1.45;;;;;;;16.28;64.46;102100.69;5051048;28;20120;-42
2022/08/10 06:23:03;;;;;;;5.22;2.17;;;;;;;16.26;64.66;102103.03;5050881;28;20044;-44
2022/08/10 06:25:31;;;;;;;8.40;1.77;;;;;;;16.31;64.65;102102.78;5050512;28;20041;-43
2022/08/10 06:28:18;;;;;;;7.75;2.30;;;;;;;16.39;64.65;102099.06;5050622;28;20040;-42
2022/08/10 06:30:48;;;;;;;7.10;2.30;;;;;;;16.42;64.65;102094.75;5049661;28;20055;-46
2022/08/10 06:33:17;;;;;;;9.05;2.20;;;;;;;16.45;64.64;102106.03;5050547;28;20040;-47
2022/08/10 06:35:47;;;;;;;9.00;2.15;;;;;;;16.51;64.91;102098.22;5050491;28;20487;-44
2022/08/10 06:38:15;;;;;;;9.45;2.67;;;;;;;16.54;64.86;102102.34;5050632;28;20063;-43
2022/08/10 06:40:45;;;;;;;12.63;3.03;;;;;;;16.53;64.96;102103.50;5050955;28;20049;-44
2022/08/10 06:43:15;;;;;;;14.80;2.85;;;;;;;16.56;65.13;102102.78;5050829;28;20064;-42
2022/08/10 06:45:54;;;;;;;7.63;2.33;;;;;;;16.63;65.00;102103.81;5032650;28;20056;-48
2022/08/10 06:48:44;;;;;;;8.20;2.43;;;;;;;16.69;64.95;102110.78;5050826;28;20464;-51
2022/08/10 06:51:32;;;;;;;10.23;3.03;;;;;;;16.79;64.88;102104.72;5032754;28;20504;-42
2022/08/10 06:54:03;;;;;;;6.40;2.35;;;;;;;16.86;64.70;102112.50;5050810;28;20139;-41
2022/08/10 06:56:38;;;;;;;6.97;2.10;;;;;;;16.92;64.67;102102.66;5032129;28;20049;-44
2022/08/10 06:59:29;;;;;;;3.47;2.15;;;;;;;16.96;64.52;102100.81;5049944;28;20124;-41
2022/08/10 07:02:03;;;;;;;7.97;2.60;;;;;;;17.02;64.36;102107.78;5050394;28;20061;-41
2022/08/10 07:04:45;;;;;;;7.40;2.45;;;;;;;17.03;64.37;102099.03;5050904;28;20079;-44
2022/08/10 07:07:18;;;;;;;9.98;2.47;;;;;;;17.07;64.60;102101.94;5049833;28;20151;-41
2022/08/10 07:09:48;;;;;;;5.15;1.83;;;;;;;17.14;64.52;102088.13;5032343;28;20055;-48
2022/08/10 07:12:18;;;;;;;4.20;1.90;;;;;;;17.20;64.73;102092.31;5049911;28;20123;-41
2022/08/10 07:14:47;;;;;;;5.03;1.95;;;;;;;17.26;64.58;102093.66;5045642;28;20485;-41
2022/08/10 07:17:24;;;;;;;3.33;1.77;;;;;;;17.31;64.53;102089.81;5049928;28;20053;-43
2022/08/10 07:19:54;;;;;;;2.58;1.58;;;;;;;17.34;64.54;102092.69;5049674;28;20053;-45
2022/08/10 07:22:26;;;;;;;4.88;1.70;;;;;;;17.42;64.41;102083.31;5037014;28;20417;-42
2022/08/10 07:25:16;;;;;;;4.68;1.65;;;;;;;17.46;64.37;102086.22;5049760;28;20045;-41
2022/08/10 07:27:44;;;;;;;3.00;2.03;;;;;;;17.49;64.50;102089.13;5032955;28;20093;-43
2022/08/10 07:30:34;;;;;;;4.82;2.70;;;;;;;17.58;64.19;102080.53;5026907;28;20449;-40
2022/08/10 07:33:03;;;;;;;4.90;2.00;;;;;;;17.62;64.39;102082.28;5026541;28;20040;-42
2022/08/10 07:35:31;;;;;;;5.10;2.00;;;;;;;17.66;64.48;102087.16;5025023;28;20126;-41
2022/08/10 07:38:16;;;;;;;4.03;1.75;;;;;;;17.76;64.11;102090.25;5013628;28;20047;-46
2022/08/10 07:40:44;;;;;;;6.55;1.48;;;;;;;17.85;64.06;102088.06;5049640;28;20048;-44
2022/08/10 07:43:12;;;;;;;2.47;2.20;;;;;;;17.97;64.06;102098.38;5031311;28;20041;-42
2022/08/10 07:45:39;;;;;;;2.33;1.73;;;;;;;18.11;63.99;102095.88;5053712;28;20037;-45
2022/08/10 07:48:12;;;;;;;7.28;1.48;;;;;;;18.24;63.86;102105.84;5049012;28;20083;-42
2022/08/10 07:50:41;;;;;;;4.00;1.38;;;;;;;18.40;63.58;102103.78;5049301;28;20148;-44
2022/08/10 07:53:12;;;;;;;6.35;1.45;;;;;;;18.51;63.81;102096.47;5049472;28;20135;-46
2022/08/10 07:55:41;;;;;;;3.67;1.37;;;;;;;18.68;63.54;102104.50;5049588;28;20130;-43
2022/08/10 07:58:33;;;;;;;5.78;1.67;;;;;;;18.81;64.17;102105.16;5047541;28;20498;-44
2022/08/10 08:01:00;;;;;;;2.03;1.20;;;;;;;18.95;63.82;102099.84;5030703;28;20060;-40
2022/08/10 08:03:29;;;;;;;6.28;1.27;;;;;;;19.13;63.79;102095.41;5048869;28;20461;-50
2022/08/10 08:05:58;;;;;;;4.63;1.83;;;;;;;19.31;63.80;102101.34;5048456;28;20521;-44
2022/08/10 08:08:36;;;;;;;4.75;1.45;;;;;;;19.44;64.06;102098.03;5049007;28;20041;-45
2022/08/10 08:11:05;;;;;;;3.72;1.10;;;;;;;19.60;63.99;102097.94;5030351;28;20053;-43
2022/08/10 08:13:33;;;;;;;6.10;1.52;;;;;;;19.90;63.42;102101.69;5051181;28;20566;-44
2022/08/10 08:16:03;;;;;;;2.25;0.90;;;;;;;20.34;62.74;102093.56;5048469;28;20080;-42
2022/08/10 08:18:48;;;;;;;4.45;1.00;;;;;;;20.91;60.93;102086.72;5048472;28;20043;-45
2022/08/10 08:21:36;;;;;;;2.10;1.25;;;;;;;21.39;59.50;102092.53;5048621;28;20052;-46
2022/08/10 08:24:23;;;;;;;2.38;1.20;;;;;;;22.02;58.26;102093.16;5048527;28;20044;-42
2022/08/10 08:27:04;;;;;;;2.95;1.40;;;;;;;22.86;55.77;102101.38;5048227;28;20079;-41
2022/08/10 08:29:32;;;;;;;;;;;;;;;23.65;56.10;102097.59;5044255;28;20037;-43
2022/08/10 08:32:02;;;;;;;3.75;1.33;;;;;;;24.78;52.21;102100.34;5042861;28;20012;-42
2022/08/10 08:34:31;;;;;;;3.72;0.98;;;;;;;25.82;48.18;102091.69;5048270;28;20047;-43
2022/08/10 08:36:59;;;;;;;5.50;1.08;;;;;;;26.78;45.65;102094.44;5048463;28;20040;-43
2022/08/10 08:39:27;;;;;;;5.15;0.82;;;;;;;27.58;43.32;102088.09;5030111;28;20048;-48
2022/08/10 08:42:25;;;;;;;4.55;1.35;;;;;;;28.19;41.66;102083.81;5048609;28;20051;-46
2022/08/10 08:45:14;;;;;;;2.83;0.90;;;;;;;28.90;39.05;102088.16;5004738;28;20118;-44
2022/08/10 08:48:18;;;;;;;3.28;0.80;;;;;;;29.38;37.84;102088.34;5042207;28;20057;-49
2022/08/10 08:50:50;;;;;;;6.57;1.08;;;;;;;29.80;36.39;102086.53;5048267;28;20053;-42
2022/08/10 08:53:49;;;;;;;5.07;1.13;;;;;;;30.24;35.23;102082.13;5048008;28;20055;-45
2022/08/10 08:56:54;;;;;;;3.80;1.05;;;;;;;30.64;34.24;102080.63;5048382;28;20600;-43
2022/08/10 08:59:39;;;;;;;6.25;1.30;;;;;;;30.84;33.34;102068.22;5048452;28;20458;-43
2022/08/10 09:02:32;;;;;;;7.80;1.38;;;;;;;30.85;32.97;102079.19;5048064;28;20071;-44
2022/08/10 09:05:15;;;;;;;9.13;1.05;;;;;;;31.02;32.23;102066.47;5044233;28;20163;-45
2022/08/10 09:08:13;;;;;;;4.80;0.90;;;;;;;31.32;31.83;102063.03;5048103;28;20041;-50
2022/08/10 09:10:49;;;;;;;1.67;0.55;;;;;;;31.67;31.22;102060.31;5035006;28;20048;-46
2022/08/10 09:13:39;;;;;;;3.90;1.02;;;;;;;31.91;30.57;102061.53;5048063;28;20049;-43
2022/08/10 09:16:42;;;;;;;2.75;0.60;;;;;;;31.97;29.98;102059.69;5048215;28;20427;-42
2022/08/10 09:19:16;;;;;;;2.20;0.65;;;;;;;32.27;29.40;102064.00;5034906;28;20123;-42
2022/08/10 09:22:35;;;;;;;2.33;0.73;;;;;;;32.36;29.01;102052.59;5047501;28;20566;-43
2022/08/10 09:25:17;;;;;;;;;;;;;;;32.26;31.05;102062.38;5052353;28;20098;-47
2022/08/10 09:27:58;;;;;;;5.95;0.73;;;;;;;32.81;29.61;102057.91;5039430;28;19924;-42
2022/08/10 09:30:34;;;;;;;;;;;;;;;32.82;30.61;102056.66;5052268;28;20131;-42
2022/08/10 09:33:18;;;;;;;2.65;1.23;;;;;;;33.04;29.13;102052.50;5047480;28;20353;-43
2022/08/10 09:36:14;;;;;;;1.73;0.65;;;;;;;33.22;28.55;102054.69;5022997;28;20056;-43
2022/08/10 09:39:11;;;;;;;8.95;0.70;;;;;;;33.35;28.54;102045.97;5047708;28;20037;-42
2022/08/10 09:42:14;;;;;;;3.00;0.60;;;;;;;33.30;28.38;102032.22;5051528;28;20045;-43
2022/08/10 09:44:42;;;;;;;2.72;0.60;;;;;;;33.45;27.53;102038.97;5051408;28;20049;-42
2022/08/10 09:47:30;;;;;;;1.60;0.70;;;;;;;33.50;27.72;102046.97;5051497;28;20402;-41
2022/08/10 09:50:39;;;;;;;6.28;0.93;;;;;;;33.67;27.33;102039.72;5034448;28;20041;-49
2022/08/10 09:53:54;;;;;;;5.60;2.50;;;;;;;33.69;27.02;102037.19;5022289;28;20060;-49
2022/08/10 09:56:39;;;;;;;5.85;2.47;;;;;;;33.55;27.24;102037.72;5025028;28;20044;-49
2022/08/10 09:59:27;;;;;;;8.00;4.40;;;;;;;33.49;26.94;102031.81;5038483;28;20771;-42
2022/08/10 10:02:30;;;;;;;7.95;4.70;;;;;;;33.50;27.46;102038.34;5038965;28;20068;-43
2022/08/10 10:05:23;;;;;;;7.75;4.40;;;;;;;33.63;26.93;102039.06;5062798;28;20144;-42
2022/08/10 10:07:59;;;;;;;6.10;2.72;;;;;;;33.75;26.74;102046.78;5051358;28;20051;-43
2022/08/10 10:10:37;;;;;;;2.67;2.10;;;;;;;33.83;26.94;102042.31;5051610;28;20048;-42
2022/08/10 10:13:21;;;;;;;1.42;0.88;;;;;;;33.84;26.22;102037.38;5051117;28;20103;-44
2022/08/10 10:16:34;;;;;;;2.83;1.50;;;;;;;33.72;26.89;102041.97;5056024;28;20044;-45
2022/08/10 10:19:23;;;;;;;1.58;1.45;;;;;;;33.83;26.86;102030.84;5022463;28;20084;-44
2022/08/10 10:22:31;;;;;;;3.53;0.90;;;;;;;33.61;26.44;102028.06;5051017;28;20132;-42
2022/08/10 10:25:20;;;;;;;1.30;0.85;;;;;;;33.66;26.15;102020.88;5050720;28;20041;-47
2022/08/10 10:28:04;;;;;;;1.37;0.70;;;;;;;33.66;26.05;102032.38;5051421;28;20506;-42
2022/08/10 10:30:37;;;;;;;1.25;0.70;;;;;;;33.67;26.33;102025.38;5050630;28;20064;-47
2022/08/10 10:33:31;;;;;;;1.17;0.57;;;;;;;33.67;26.59;102019.63;5050131;28;20466;-43
2022/08/10 10:36:00;;;;;;;3.70;0.75;;;;;;;33.69;26.65;102022.81;5050339;28;20486;-44
2022/08/10 10:38:39;;;;;;;5.10;0.82;;;;;;;33.56;27.01;102017.19;5050528;28;20571;-45
2022/08/10 10:41:50;;;;;;;0.50;0.50;;;;;;;33.40;26.66;102010.88;5050346;28;20418;-42
2022/08/10 10:44:45;;;;;;;4.18;0.93;;;;;;;33.15;27.32;102002.50;5050606;28;20048;-46
2022/08/10 10:47:45;;;;;;;2.67;0.90;;;;;;;33.00;27.16;101997.31;5050525;28;20053;-44
2022/08/10 10:50:18;;;;;;;0.90;0.45;;;;;;;32.60;27.24;101996.44;5050428;28;20049;-44
2022/08/10 10:52:54;;;;;;;3.00;0.60;;;;;;;32.29;27.39;102004.13;5044376;28;20049;-42
2022/08/10 10:55:55;;;;;;;1.27;0.60;;;;;;;31.83;27.80;101995.09;5036935;28;20049;-44
2022/08/10 10:59:03;;;;;;;1.35;0.80;;;;;;;31.42;28.45;101997.34;5050310;28;20071;-42
2022/08/10 11:02:45;;;;;;;1.35;0.70;;;;;;;30.72;29.06;101984.81;5050212;28;20486;-42
2022/08/10 11:05:47;;;;;;;1.40;0.50;;;;;;;29.98;29.95;101975.50;4987826;28;20266;-42
2022/08/10 11:08:34;;;;;;;0.98;0.45;;;;;;;29.54;30.40;101982.78;5040404;28;20473;-42
2022/08/10 11:11:08;;;;;;;0.57;0.45;;;;;;;29.30;30.48;101966.25;5049987;28;20136;-46
2022/08/10 11:14:24;;;;;;;1.85;0.65;;;;;;;29.11;31.44;101967.91;5049793;28;20139;-42
2022/08/10 11:17:21;;;;;;;1.05;0.80;;;;;;;28.92;31.24;101968.75;5020940;28;20115;-43
2022/08/10 11:20:16;;;;;;;2.83;0.90;;;;;;;28.64;32.35;101961.66;5050191;28;20094;-47
2022/08/10 11:23:13;;;;;;;4.32;1.20;;;;;;;28.51;33.26;101955.00;5049380;28;20464;-42
2022/08/10 11:25:43;;;;;;;3.97;1.15;;;;;;;28.39;33.63;101959.31;5049605;28;20041;-41
2022/08/10 11:28:32;;;;;;;3.47;1.15;;;;;;;28.20;34.56;101956.44;5049790;28;20565;-44
2022/08/10 11:31:18;;;;;;;5.13;1.42;;;;;;;27.94;34.83;101955.31;5042999;28;20048;-42
2022/08/10 11:34:12;;;;;;;4.40;1.60;;;;;;;27.67;35.51;101960.28;5049837;28;20045;-43
2022/08/10 11:37:39;;;;;;;4.78;0.93;;;;;;;27.41;36.52;101964.78;5049561;28;20045;-40
2022/08/10 11:40:55;;;;;;;5.07;1.83;;;;;;;27.25;36.94;101956.09;5048925;28;20037;-46
2022/08/10 11:43:27;;;;;;;5.05;1.92;;;;;;;27.16;37.27;101958.69;5049289;28;20037;-45
2022/08/10 11:46:39;;;;;;;4.13;1.60;;;;;;;27.14;37.31;101956.25;5049344;28;20510;-42
2022/08/10 11:49:12;;;;;;;4.25;1.65;;;;;;;27.11;37.60;101947.81;5018601;28;20068;-41
2022/08/10 11:51:56;;;;;;;2.88;1.80;;;;;;;27.11;37.95;101950.66;5048825;28;20053;-42
2022/08/10 11:54:32;;;;;;;3.80;1.85;;;;;;;27.15;37.90;101940.00;5031073;28;20037;-44
2022/08/10 11:56:59;;;;;;;2.17;1.50;;;;;;;27.10;37.13;101944.16;5048550;28;20048;-41
2022/08/10 12:02:32;;;;;;;1.48;1.05;;;;;;;26.94;37.37;101946.84;5048556;28;20159;-44
2022/08/10 12:05:06;;;;;;;4.97;1.08;;;;;;;26.90;37.94;101943.22;5048776;28;20037;-48
2022/08/10 12:07:38;;;;;;;4.03;1.45;;;;;;;26.90;37.74;101957.44;5023974;28;20140;-41
2022/08/10 12:10:26;;;;;;;3.13;1.30;;;;;;;26.83;38.22;101957.56;5006448;28;20048;-45
2022/08/10 12:13:17;;;;;;;3.38;1.20;;;;;;;26.80;38.44;101952.72;5022616;28;20049;-48
2022/08/10 12:16:01;;;;;;;3.35;1.00;;;;;;;26.80;38.48;101958.41;5024774;28;20054;-43
2022/08/10 12:19:03;;;;;;;6.05;1.00;;;;;;;26.72;38.72;101961.72;5048037;28;20051;-50
2022/08/10 12:21:37;;;;;;;2.50;0.90;;;;;;;26.62;38.91;101957.81;5048456;28;20047;-43
2022/08/10 12:24:32;;;;;;;3.40;0.98;;;;;;;26.50;39.11;101961.25;5059336;28;20494;-44
2022/08/10 12:27:15;;;;;;;1.33;0.80;;;;;;;26.45;38.80;101956.81;5049055;28;20045;-43